Time;durP1;ratioP1;P1;durP2;ratioP2;P2;SDS_P1;SDS_P2;PMS_P1;PMS_P2;Temp;Humidity;BMP_temperature;BMP_pressure;BME280_temperature;BME280_humidity;BME280_pressure;Samples;Min_cycle;Max_cycle;Signal;HPM_P1;HPM_P2
2023/11/04 00:01:53;;;;;;;0.30;0.20;;;20.90;39.90;;;;;;5065457;28;20033;-59
2023/11/04 00:04:19;;;;;;;0.32;0.22;;;20.90;39.90;;;;;;5057240;28;20447;-58
2023/11/04 00:06:45;;;;;;;0.93;0.30;;;20.90;39.90;;;;;;5074408;28;20028;-54
2023/11/04 00:09:12;;;;;;;0.20;0.13;;;20.90;39.90;;;;;;5070797;28;20028;-56
2023/11/04 00:11:37;;;;;;;0.38;0.20;;;20.90;39.90;;;;;;5063493;28;20024;-58
2023/11/04 00:14:04;;;;;;;0.20;0.20;;;20.90;39.90;;;;;;5049395;28;20044;-60
2023/11/04 00:16:30;;;;;;;0.38;0.20;;;20.90;39.90;;;;;;5067282;28;20116;-60
2023/11/04 00:18:56;;;;;;;0.20;0.13;;;20.90;39.90;;;;;;5070880;28;20081;-56
2023/11/04 00:21:22;;;;;;;0.22;0.10;;;20.90;39.90;;;;;;5075040;28;20121;-57
2023/11/04 00:23:47;;;;;;;0.90;0.20;;;20.90;39.90;;;;;;5062526;28;20048;-60
2023/11/04 00:26:13;;;;;;;0.10;0.10;;;20.90;39.90;;;;;;5070037;28;20036;-59
2023/11/04 00:28:44;;;;;;;0.50;0.20;;;20.80;39.80;;;;;;5079334;28;20032;-57
2023/11/04 00:31:11;;;;;;;0.40;0.20;;;20.90;39.90;;;;;;5068371;28;20174;-57
2023/11/04 00:33:37;;;;;;;0.82;0.30;;;20.80;39.80;;;;;;5083219;28;20024;-55
2023/11/04 00:36:04;;;;;;;0.15;0.15;;;20.80;39.80;;;;;;5054309;28;20111;-57
2023/11/04 00:38:30;;;;;;;0.20;0.20;;;20.80;39.80;;;;;;5068345;28;20386;-60
2023/11/04 00:40:56;;;;;;;0.28;0.25;;;20.80;39.80;;;;;;5050033;28;20043;-57
2023/11/04 00:43:22;;;;;;;2.05;0.22;;;20.80;39.80;;;;;;5067238;28;20475;-59
2023/11/04 00:45:48;;;;;;;0.10;0.10;;;20.80;39.80;;;;;;5067038;28;20048;-56
2023/11/04 00:48:14;;;;;;;0.30;0.20;;;20.80;39.80;;;;;;5063895;28;20021;-59
2023/11/04 00:50:43;;;;;;;0.28;0.20;;;20.80;39.80;;;;;;5072393;28;20355;-57
2023/11/04 00:53:09;;;;;;;0.68;0.40;;;20.80;39.80;;;;;;5063139;28;20028;-60
2023/11/04 00:55:35;;;;;;;0.43;0.20;;;20.80;39.80;;;;;;5069682;28;20340;-60
2023/11/04 00:58:01;;;;;;;2.55;0.22;;;20.80;39.80;;;;;;5067777;28;20107;-58
2023/11/04 01:00:26;;;;;;;0.25;0.20;;;20.80;39.80;;;;;;5067299;28;20031;-57
2023/11/04 01:02:55;;;;;;;0.32;0.20;;;20.80;39.90;;;;;;5080894;28;21223;-59
2023/11/04 01:05:23;;;;;;;0.35;0.20;;;20.80;40.50;;;;;;5056258;28;20462;-59
2023/11/04 01:07:49;;;;;;;0.20;0.20;;;20.70;39.80;;;;;;5075588;28;20111;-56
2023/11/04 01:10:16;;;;;;;0.43;0.43;;;20.80;39.90;;;;;;5049313;28;20054;-55
2023/11/04 01:12:42;;;;;;;0.28;0.25;;;20.70;39.90;;;;;;5068441;28;20036;-59
2023/11/04 01:15:08;;;;;;;0.30;0.20;;;20.70;39.90;;;;;;5048591;28;20098;-53
2023/11/04 01:17:35;;;;;;;1.00;0.20;;;20.70;39.90;;;;;;5067250;28;20032;-58
2023/11/04 01:20:02;;;;;;;0.17;0.10;;;20.70;39.90;;;;;;5070328;28;20519;-57
2023/11/04 01:22:28;;;;;;;0.30;0.20;;;20.70;39.90;;;;;;5063825;28;20107;-54
2023/11/04 01:24:54;;;;;;;0.38;0.25;;;20.70;40.00;;;;;;5067995;28;20104;-59
2023/11/04 01:27:20;;;;;;;0.30;0.20;;;20.70;40.00;;;;;;5080914;28;20029;-58
2023/11/04 01:29:46;;;;;;;0.73;0.35;;;20.70;40.00;;;;;;5049928;28;20444;-58
2023/11/04 01:32:12;;;;;;;0.20;0.20;;;20.70;40.00;;;;;;5063372;28;20039;-58
2023/11/04 01:34:38;;;;;;;0.13;0.10;;;20.70;40.00;;;;;;5069939;28;20512;-58
2023/11/04 01:37:04;;;;;;;0.10;0.10;;;20.70;40.10;;;;;;5072131;28;20112;-56
2023/11/04 01:39:29;;;;;;;0.55;0.28;;;20.70;40.10;;;;;;5049156;28;20056;-58
2023/11/04 01:41:55;;;;;;;0.10;0.10;;;20.70;40.10;;;;;;5065411;28;20029;-60
2023/11/04 01:44:21;;;;;;;0.55;0.20;;;20.70;40.10;;;;;;5050915;28;20025;-58
2023/11/04 01:46:47;;;;;;;0.40;0.20;;;20.70;40.20;;;;;;5079734;28;20040;-53
2023/11/04 01:49:14;;;;;;;0.13;0.13;;;20.70;40.20;;;;;;5070217;28;20108;-59
2023/11/04 01:51:40;;;;;;;0.50;0.30;;;20.70;40.20;;;;;;5050158;28;20164;-56
2023/11/04 01:54:06;;;;;;;0.20;0.17;;;20.70;40.20;;;;;;5060251;28;20029;-56
2023/11/04 01:56:34;;;;;;;0.20;0.20;;;20.70;40.20;;;;;;5070986;28;20028;-58
2023/11/04 01:59:03;;;;;;;1.10;0.20;;;20.60;40.20;;;;;;5049200;28;20150;-55
2023/11/04 02:01:30;;;;;;;0.38;0.30;;;20.70;40.40;;;;;;5049910;28;20020;-59
2023/11/04 02:03:56;;;;;;;0.20;0.20;;;20.60;40.30;;;;;;5067553;28;20021;-56
2023/11/04 02:06:22;;;;;;;0.20;0.20;;;20.70;40.40;;;;;;5067661;28;20036;-54
2023/11/04 02:08:48;;;;;;;0.75;0.25;;;20.70;40.40;;;;;;5066271;28;20510;-57
2023/11/04 02:11:14;;;;;;;0.40;0.22;;;20.70;40.50;;;;;;5064510;28;20093;-58
2023/11/04 02:13:40;;;;;;;0.10;0.10;;;20.60;40.50;;;;;;5050160;28;20021;-58
2023/11/04 02:16:07;;;;;;;0.95;0.30;;;20.60;40.50;;;;;;5071635;28;20117;-56
2023/11/04 02:18:33;;;;;;;0.93;0.45;;;20.60;40.50;;;;;;5053472;28;20021;-59
2023/11/04 02:21:02;;;;;;;0.47;0.30;;;20.60;40.50;;;;;;5058507;28;20017;-59
2023/11/04 02:23:28;;;;;;;0.82;0.30;;;20.60;40.60;;;;;;5063922;28;20451;-56
2023/11/04 02:25:54;;;;;;;0.15;0.10;;;20.60;40.60;;;;;;5047563;28;20032;-57
2023/11/04 02:28:21;;;;;;;0.45;0.32;;;20.60;40.70;;;;;;5051049;28;20029;-57
2023/11/04 02:30:47;;;;;;;0.25;0.20;;;20.60;40.80;;;;;;5070237;28;20101;-58
2023/11/04 02:33:13;;;;;;;0.30;0.25;;;20.60;40.90;;;;;;5080363;28;20021;-60
2023/11/04 02:35:39;;;;;;;0.80;0.32;;;20.60;40.90;;;;;;5075460;28;20024;-57
2023/11/04 02:38:05;;;;;;;0.20;0.20;;;20.60;41.00;;;;;;5070201;28;20610;-58
2023/11/04 02:40:31;;;;;;;0.25;0.17;;;20.60;41.10;;;;;;5047767;28;20043;-58
2023/11/04 02:42:57;;;;;;;0.60;0.35;;;20.50;41.10;;;;;;5060761;28;20360;-58
2023/11/04 02:45:23;;;;;;;0.40;0.30;;;20.50;41.10;;;;;;5044591;28;20494;-56
2023/11/04 02:47:49;;;;;;;0.73;0.22;;;20.50;41.20;;;;;;5080618;28;20058;-57
2023/11/04 02:50:15;;;;;;;0.60;0.30;;;20.50;41.20;;;;;;5074807;28;20070;-58
2023/11/04 02:52:41;;;;;;;0.45;0.10;;;20.50;41.30;;;;;;5053638;28;20024;-57
2023/11/04 02:55:07;;;;;;;0.13;0.10;;;20.50;41.30;;;;;;5070273;28;20485;-59
2023/11/04 02:57:34;;;;;;;0.63;0.40;;;20.50;41.40;;;;;;5067352;28;20020;-58
2023/11/04 03:00:00;;;;;;;0.52;0.30;;;20.50;41.40;;;;;;5056285;28;20032;-53
2023/11/04 03:02:26;;;;;;;0.55;0.20;;;20.40;41.40;;;;;;5069925;28;20332;-57
2023/11/04 03:04:53;;;;;;;0.30;0.20;;;20.50;41.50;;;;;;5047150;28;20060;-58
2023/11/04 03:07:20;;;;;;;0.45;0.17;;;20.40;41.50;;;;;;5074183;28;20061;-57
2023/11/04 03:09:46;;;;;;;0.30;0.20;;;20.40;41.60;;;;;;5058601;28;20021;-55
2023/11/04 03:12:12;;;;;;;0.22;0.13;;;20.40;41.60;;;;;;5055872;28;20475;-57
2023/11/04 03:14:37;;;;;;;0.32;0.20;;;20.40;41.70;;;;;;5049113;28;20061;-59
2023/11/04 03:17:04;;;;;;;0.38;0.25;;;20.40;41.80;;;;;;5049284;28;20052;-57
2023/11/04 03:19:32;;;;;;;0.50;0.20;;;20.40;41.80;;;;;;5072880;28;20037;-60
2023/11/04 03:21:57;;;;;;;0.43;0.20;;;20.40;41.90;;;;;;5061897;28;20371;-57
2023/11/04 03:24:23;;;;;;;0.75;0.25;;;20.30;41.90;;;;;;5082628;28;20028;-58
2023/11/04 03:26:49;;;;;;;0.40;0.20;;;20.30;41.90;;;;;;5069247;28;20036;-57
2023/11/04 03:29:15;;;;;;;0.32;0.30;;;20.30;42.00;;;;;;5064796;28;20160;-60
2023/11/04 03:31:41;;;;;;;0.60;0.25;;;20.30;42.10;;;;;;5072979;28;20111;-55
2023/11/04 03:34:07;;;;;;;0.82;0.20;;;20.30;42.20;;;;;;5072282;28;20123;-54
2023/11/04 03:36:33;;;;;;;0.73;0.30;;;20.30;42.20;;;;;;5071998;28;20557;-56
2023/11/04 03:39:01;;;;;;;1.08;0.17;;;20.30;42.30;;;;;;5075146;28;20060;-57
2023/11/04 03:41:27;;;;;;;0.75;0.40;;;20.30;42.40;;;;;;5077460;28;20025;-57
2023/11/04 03:43:53;;;;;;;0.82;0.20;;;20.30;42.40;;;;;;5075690;28;20348;-55
2023/11/04 03:46:19;;;;;;;0.20;0.20;;;20.30;42.50;;;;;;5075388;28;20028;-57
2023/11/04 03:48:45;;;;;;;0.98;0.40;;;20.20;42.50;;;;;;5074223;28;20032;-58
2023/11/04 03:51:11;;;;;;;1.50;0.40;;;20.20;42.60;;;;;;5058205;28;20050;-58
2023/11/04 03:53:38;;;;;;;0.10;0.10;;;20.20;42.60;;;;;;5077351;28;20040;-59
2023/11/04 03:56:04;;;;;;;0.55;0.20;;;20.20;42.70;;;;;;5077001;28;20036;-60
2023/11/04 03:58:30;;;;;;;0.22;0.15;;;20.20;42.80;;;;;;5077933;28;20044;-59
2023/11/04 04:00:56;;;;;;;0.40;0.30;;;20.20;42.80;;;;;;5077638;28;20059;-59
2023/11/04 04:03:22;;;;;;;0.25;0.20;;;20.20;42.90;;;;;;5077266;28;20350;-57
2023/11/04 04:05:48;;;;;;;0.75;0.30;;;20.20;42.90;;;;;;5079097;28;20144;-59
2023/11/04 04:08:15;;;;;;;0.30;0.30;;;20.20;43.00;;;;;;5074477;28;20451;-58
2023/11/04 04:10:41;;;;;;;0.65;0.20;;;20.20;43.00;;;;;;5074471;28;20033;-56
2023/11/04 04:13:07;;;;;;;0.60;0.20;;;20.20;43.10;;;;;;5074917;28;20436;-58
2023/11/04 04:15:32;;;;;;;0.30;0.20;;;20.10;43.10;;;;;;5062775;28;20028;-57
2023/11/04 04:17:58;;;;;;;0.30;0.20;;;20.10;43.10;;;;;;5074327;28;20024;-56
2023/11/04 04:20:24;;;;;;;0.68;0.40;;;20.10;43.20;;;;;;5058337;28;20046;-57
2023/11/04 04:22:50;;;;;;;0.35;0.20;;;20.10;43.40;;;;;;5076269;28;20031;-60
2023/11/04 04:25:16;;;;;;;0.20;0.15;;;20.10;43.30;;;;;;5075342;28;20047;-57
2023/11/04 04:27:42;;;;;;;0.80;0.30;;;20.10;43.40;;;;;;5080596;28;20035;-59
2023/11/04 04:30:08;;;;;;;0.20;0.20;;;20.10;43.40;;;;;;5073412;28;20028;-56
2023/11/04 04:32:34;;;;;;;0.30;0.28;;;20.10;43.50;;;;;;5080907;28;20089;-57
2023/11/04 04:35:00;;;;;;;0.35;0.30;;;20.10;43.60;;;;;;5079407;28;20036;-55
2023/11/04 04:37:29;;;;;;;0.52;0.30;;;20.10;43.60;;;;;;5062542;28;20035;-52
2023/11/04 04:39:58;;;;;;;0.50;0.22;;;20.10;43.60;;;;;;5059994;28;20032;-53
2023/11/04 04:42:24;;;;;;;0.30;0.30;;;20.10;43.70;;;;;;5079658;28;20020;-56
2023/11/04 04:44:50;;;;;;;0.10;0.10;;;20.10;43.80;;;;;;5081427;28;20055;-59
2023/11/04 04:47:15;;;;;;;0.75;0.40;;;20.00;43.70;;;;;;5078685;28;20127;-58
2023/11/04 04:49:42;;;;;;;0.43;0.20;;;20.00;43.80;;;;;;5071946;28;20033;-57
2023/11/04 04:52:07;;;;;;;0.52;0.20;;;20.00;43.90;;;;;;5081675;28;20020;-59
2023/11/04 04:54:33;;;;;;;0.47;0.20;;;20.00;43.90;;;;;;5072862;28;20036;-56
2023/11/04 04:56:59;;;;;;;0.38;0.28;;;20.00;44.00;;;;;;5074920;28;20028;-56
2023/11/04 04:59:25;;;;;;;0.20;0.20;;;20.00;44.00;;;;;;5072039;28;20032;-60
2023/11/04 05:01:51;;;;;;;0.40;0.20;;;20.00;44.00;;;;;;5078942;28;20040;-59
2023/11/04 05:04:16;;;;;;;0.30;0.20;;;20.00;44.10;;;;;;5076575;28;20527;-59
2023/11/04 05:06:42;;;;;;;0.35;0.30;;;20.00;44.10;;;;;;5080709;28;20443;-59
2023/11/04 05:09:08;;;;;;;0.70;0.30;;;20.00;44.20;;;;;;5070590;28;20020;-56
2023/11/04 05:11:34;;;;;;;0.60;0.22;;;20.00;44.20;;;;;;5080772;28;20090;-58
2023/11/04 05:14:00;;;;;;;0.38;0.28;;;20.00;44.30;;;;;;5078606;28;20075;-59
2023/11/04 05:16:26;;;;;;;0.20;0.20;;;20.00;44.30;;;;;;5070701;28;20028;-59
2023/11/04 05:18:52;;;;;;;0.43;0.20;;;20.00;44.40;;;;;;5077608;28;20103;-55
2023/11/04 05:21:18;;;;;;;0.52;0.30;;;20.00;44.40;;;;;;5076280;28;20056;-58
2023/11/04 05:23:44;;;;;;;0.17;0.17;;;20.00;44.40;;;;;;5078585;28;20032;-57
2023/11/04 05:26:10;;;;;;;0.60;0.20;;;19.90;44.40;;;;;;5073484;28;20101;-58
2023/11/04 05:28:36;;;;;;;0.70;0.25;;;20.00;44.50;;;;;;5067352;28;20024;-56
2023/11/04 05:31:01;;;;;;;0.57;0.38;;;20.00;44.50;;;;;;5061128;28;20044;-53
2023/11/04 05:33:28;;;;;;;0.30;0.20;;;20.00;44.50;;;;;;5078448;28;20119;-58
2023/11/04 05:35:54;;;;;;;0.30;0.20;;;20.00;44.60;;;;;;5072674;28;20495;-58
2023/11/04 05:38:23;;;;;;;0.50;0.10;;;19.90;44.60;;;;;;5080402;28;20109;-59
2023/11/04 05:40:48;;;;;;;0.65;0.22;;;19.90;44.60;;;;;;5079264;28;20044;-60
2023/11/04 05:43:14;;;;;;;0.22;0.20;;;19.90;44.70;;;;;;5076469;28;20033;-58
2023/11/04 05:45:40;;;;;;;0.57;0.30;;;19.90;44.70;;;;;;5073876;28;20478;-59
2023/11/04 05:48:08;;;;;;;0.75;0.40;;;19.90;44.70;;;;;;5075759;28;20328;-56
2023/11/04 05:50:34;;;;;;;1.00;0.30;;;19.90;44.70;;;;;;5073226;28;20551;-56
2023/11/04 05:52:59;;;;;;;0.50;0.20;;;19.90;45.40;;;;;;5084121;28;20024;-57
2023/11/04 05:55:25;;;;;;;0.30;0.25;;;19.90;44.80;;;;;;5076815;28;20029;-59
2023/11/04 05:57:51;;;;;;;0.50;0.30;;;19.90;44.80;;;;;;5075901;28;20475;-57
2023/11/04 06:00:17;;;;;;;1.02;0.32;;;19.90;44.90;;;;;;5077051;28;20031;-55
2023/11/04 06:02:45;;;;;;;0.60;0.40;;;19.90;44.90;;;;;;5074304;28;20093;-59
2023/11/04 06:05:13;;;;;;;0.28;0.20;;;19.90;44.90;;;;;;5075364;28;20052;-58
2023/11/04 06:07:40;;;;;;;0.50;0.30;;;19.90;44.90;;;;;;5068701;28;20032;-57
2023/11/04 06:10:08;;;;;;;0.63;0.28;;;19.90;45.00;;;;;;5077391;28;20167;-61
2023/11/04 06:12:37;;;;;;;0.45;0.30;;;19.90;45.00;;;;;;5079141;28;20031;-55
2023/11/04 06:15:03;;;;;;;0.43;0.38;;;19.80;45.00;;;;;;5079993;28;20432;-57
2023/11/04 06:17:29;;;;;;;0.82;0.40;;;19.90;45.10;;;;;;5082348;28;20134;-57
2023/11/04 06:19:56;;;;;;;0.22;0.20;;;19.90;45.10;;;;;;5084069;28;20119;-53
2023/11/04 06:22:23;;;;;;;0.82;0.40;;;19.90;45.10;;;;;;5079938;28;20016;-55
2023/11/04 06:24:49;;;;;;;1.15;0.30;;;19.90;45.10;;;;;;5084091;28;20020;-57
2023/11/04 06:27:15;;;;;;;0.80;0.30;;;19.80;45.10;;;;;;5079272;28;20041;-59
2023/11/04 06:29:41;;;;;;;0.60;0.30;;;19.80;45.10;;;;;;5077018;28;20028;-57
2023/11/04 06:32:07;;;;;;;0.38;0.20;;;19.80;45.10;;;;;;5078584;28;20029;-57
2023/11/04 06:34:34;;;;;;;0.73;0.40;;;19.80;45.10;;;;;;5060966;28;20040;-58
2023/11/04 06:37:02;;;;;;;0.45;0.20;;;19.80;45.20;;;;;;5082664;28;20025;-56
2023/11/04 06:39:28;;;;;;;1.10;0.43;;;19.80;45.20;;;;;;5077136;28;20032;-57
2023/11/04 06:41:54;;;;;;;1.02;0.30;;;19.80;45.20;;;;;;5070668;28;20025;-57
2023/11/04 06:44:20;;;;;;;0.68;0.20;;;19.80;45.20;;;;;;5077338;28;20036;-60
2023/11/04 06:46:48;;;;;;;0.77;0.30;;;19.80;45.20;;;;;;5081244;28;20052;-59
2023/11/04 06:49:14;;;;;;;0.47;0.20;;;19.80;45.30;;;;;;5064265;28;20507;-55
2023/11/04 06:51:41;;;;;;;0.35;0.20;;;19.80;45.30;;;;;;5080280;28;20020;-60
2023/11/04 06:54:07;;;;;;;0.50;0.30;;;19.80;45.30;;;;;;5079550;28;20081;-55
2023/11/04 06:56:33;;;;;;;0.73;0.32;;;19.80;45.30;;;;;;5080324;28;20028;-59
2023/11/04 06:58:59;;;;;;;1.45;0.45;;;19.80;45.40;;;;;;5078410;28;20043;-58
2023/11/04 07:01:26;;;;;;;0.60;0.30;;;19.80;45.30;;;;;;5062511;28;20340;-56
2023/11/04 07:03:52;;;;;;;1.75;0.40;;;19.80;45.40;;;;;;5081536;28;20091;-59
2023/11/04 07:06:19;;;;;;;0.40;0.20;;;19.80;45.40;;;;;;5080287;28;20040;-58
2023/11/04 07:08:46;;;;;;;0.73;0.30;;;19.80;45.40;;;;;;5078025;28;20036;-58
2023/11/04 07:11:19;;;;;;;1.38;0.40;;;19.80;45.40;;;;;;5074247;28;20036;-58
2023/11/04 07:13:45;;;;;;;0.63;0.40;;;19.80;45.40;;;;;;5078128;28;20468;-60
2023/11/04 07:16:12;;;;;;;0.80;0.40;;;19.80;45.40;;;;;;5080716;28;20170;-58
2023/11/04 07:18:42;;;;;;;0.30;0.28;;;19.80;45.40;;;;;;5075385;28;20085;-58
2023/11/04 07:21:09;;;;;;;0.50;0.40;;;19.80;45.40;;;;;;5064320;28;20028;-54
2023/11/04 07:23:35;;;;;;;0.60;0.35;;;19.80;45.40;;;;;;5079581;28;20039;-57
2023/11/04 07:26:01;;;;;;;1.38;0.40;;;19.80;45.40;;;;;;5079948;28;20044;-57
2023/11/04 07:28:45;;;;;;;0.57;0.22;;;19.80;45.40;;;;;;5072988;28;20501;-56
2023/11/04 07:31:14;;;;;;;1.37;0.40;;;19.80;45.40;;;;;;5059214;28;20099;-59
2023/11/04 07:33:40;;;;;;;0.70;0.40;;;19.80;45.50;;;;;;5077505;28;20039;-58
2023/11/04 07:36:08;;;;;;;1.02;0.40;;;19.80;45.40;;;;;;5079590;28;20395;-56
2023/11/04 07:38:33;;;;;;;0.75;0.35;;;19.80;45.40;;;;;;5080497;28;20036;-57
2023/11/04 07:40:59;;;;;;;0.50;0.40;;;19.80;45.40;;;;;;5073871;28;20020;-60
2023/11/04 07:43:25;;;;;;;1.48;0.45;;;19.70;45.40;;;;;;5079829;28;20043;-56
2023/11/04 07:45:51;;;;;;;0.63;0.30;;;19.80;45.40;;;;;;5079933;28;20040;-59
2023/11/04 07:48:17;;;;;;;0.60;0.50;;;19.80;45.50;;;;;;5075238;28;20385;-58
2023/11/04 07:50:42;;;;;;;1.35;0.40;;;19.80;45.40;;;;;;5076820;28;20032;-59
2023/11/04 07:53:08;;;;;;;0.88;0.40;;;19.80;45.40;;;;;;5071926;28;20103;-60
2023/11/04 07:55:34;;;;;;;1.08;0.40;;;19.80;45.40;;;;;;5070052;28;20028;-58
2023/11/04 07:58:00;;;;;;;1.58;0.45;;;19.80;45.40;;;;;;5070971;28;20448;-59
2023/11/04 08:00:27;;;;;;;0.40;0.25;;;19.80;45.40;;;;;;5074967;28;20027;-59
2023/11/04 08:02:53;;;;;;;1.27;0.50;;;19.80;45.40;;;;;;5075976;28;20047;-60
2023/11/04 08:05:19;;;;;;;0.60;0.30;;;19.80;45.30;;;;;;5076835;28;20363;-56
2023/11/04 08:07:45;;;;;;;0.52;0.30;;;19.80;45.30;;;;;;5069206;28;20237;-58
2023/11/04 08:10:11;;;;;;;0.50;0.30;;;19.80;45.30;;;;;;5072936;28;20025;-57
2023/11/04 08:12:36;;;;;;;0.25;0.22;;;19.80;45.30;;;;;;5068645;28;20317;-58
2023/11/04 08:15:04;;;;;;;0.88;0.32;;;19.80;45.30;;;;;;5072448;28;20032;-58
2023/11/04 08:17:32;;;;;;;1.45;0.20;;;19.80;45.30;;;;;;5071879;28;20214;-58
2023/11/04 08:19:58;;;;;;;0.70;0.30;;;19.90;45.40;;;;;;5074550;28;20029;-59
2023/11/04 08:22:24;;;;;;;3.38;0.57;;;19.90;45.40;;;;;;5077397;28;20027;-58
2023/11/04 08:24:50;;;;;;;0.70;0.30;;;19.90;45.40;;;;;;5075969;28;20362;-58
2023/11/04 08:27:16;;;;;;;0.93;0.30;;;19.90;45.40;;;;;;5071036;28;20032;-57
2023/11/04 08:29:43;;;;;;;1.30;0.32;;;19.90;45.40;;;;;;5073148;28;20023;-58
2023/11/04 08:32:08;;;;;;;1.30;0.30;;;19.90;45.40;;;;;;5073893;28;20366;-60
2023/11/04 08:34:37;;;;;;;0.85;0.32;;;19.90;45.70;;;;;;5059553;28;20044;-59
2023/11/04 08:37:03;;;;;;;1.10;0.32;;;20.00;45.70;;;;;;5073080;28;20027;-61
2023/11/04 08:39:29;;;;;;;1.25;0.40;;;20.00;45.70;;;;;;5050850;28;20102;-58
2023/11/04 08:41:55;;;;;;;0.93;0.35;;;20.00;45.70;;;;;;5070205;28;20025;-58
2023/11/04 08:44:22;;;;;;;2.80;0.30;;;20.00;45.60;;;;;;5076342;28;20051;-60
2023/11/04 08:46:48;;;;;;;1.98;0.50;;;20.00;45.60;;;;;;5060089;28;20357;-56
2023/11/04 08:49:14;;;;;;;2.13;0.20;;;20.00;45.60;;;;;;5073655;28;20025;-58
2023/11/04 08:51:40;;;;;;;1.13;0.40;;;20.00;45.50;;;;;;5077817;28;20443;-60
2023/11/04 08:54:06;;;;;;;0.47;0.25;;;20.00;45.50;;;;;;5071421;28;20037;-60
2023/11/04 08:56:32;;;;;;;1.35;0.32;;;20.00;45.50;;;;;;5076012;28;20108;-61
2023/11/04 08:58:58;;;;;;;1.02;0.30;;;20.00;45.50;;;;;;5073162;28;20107;-60
2023/11/04 09:01:25;;;;;;;1.10;0.30;;;20.00;45.50;;;;;;5072341;28;20116;-60
2023/11/04 09:03:55;;;;;;;3.15;0.82;;;20.00;45.50;;;;;;5072942;28;20399;-58
2023/11/04 09:06:22;;;;;;;0.60;0.30;;;20.00;45.50;;;;;;5073572;28;20044;-60
2023/11/04 09:08:49;;;;;;;1.17;0.47;;;20.00;45.50;;;;;;5071417;28;20039;-58
2023/11/04 09:11:16;;;;;;;0.30;0.30;;;20.00;45.40;;;;;;5053741;28;20059;-60
2023/11/04 09:13:44;;;;;;;0.55;0.30;;;20.00;45.40;;;;;;5069518;28;20032;-58
2023/11/04 09:16:09;;;;;;;0.93;0.30;;;20.00;45.40;;;;;;5071217;28;20028;-60
2023/11/04 09:18:38;;;;;;;0.57;0.30;;;20.00;45.40;;;;;;5070054;28;20032;-61
2023/11/04 09:21:06;;;;;;;0.90;0.20;;;20.00;45.40;;;;;;5071275;28;20062;-60
2023/11/04 09:23:32;;;;;;;1.08;0.40;;;20.00;45.40;;;;;;5070925;28;20048;-61
2023/11/04 09:25:59;;;;;;;0.55;0.30;;;20.10;45.40;;;;;;5072406;28;20056;-57
2023/11/04 09:28:26;;;;;;;0.70;0.40;;;20.00;45.30;;;;;;5073127;28;20130;-59
2023/11/04 09:30:54;;;;;;;0.50;0.30;;;20.10;45.30;;;;;;5074467;28;20022;-59
2023/11/04 09:33:21;;;;;;;0.70;0.30;;;20.10;45.20;;;;;;5054048;28;20115;-58
2023/11/04 09:35:47;;;;;;;0.40;0.25;;;20.10;45.20;;;;;;5071561;28;20084;-60
2023/11/04 09:38:13;;;;;;;0.40;0.20;;;20.10;45.10;;;;;;5072475;28;20409;-59
2023/11/04 09:40:39;;;;;;;0.45;0.40;;;20.20;45.10;;;;;;5072640;28;20045;-59
2023/11/04 09:43:05;;;;;;;0.30;0.20;;;20.20;45.10;;;;;;5068706;28;20032;-60
2023/11/04 09:45:31;;;;;;;0.73;0.20;;;20.30;45.10;;;;;;5070971;28;20040;-59
2023/11/04 09:47:57;;;;;;;0.52;0.20;;;20.30;45.00;;;;;;5071287;28;20029;-58
2023/11/04 09:50:23;;;;;;;1.65;0.30;;;20.30;44.90;;;;;;5076962;28;20336;-57
2023/11/04 09:52:53;;;;;;;1.33;0.32;;;20.40;44.80;;;;;;5086324;28;20390;-59
2023/11/04 09:55:23;;;;;;;0.85;0.50;;;20.40;44.80;;;;;;5076913;28;20491;-59
2023/11/04 09:57:49;;;;;;;0.40;0.28;;;20.50;44.80;;;;;;5074705;28;20028;-60
2023/11/04 10:00:20;;;;;;;0.85;0.32;;;20.50;44.80;;;;;;5074605;28;20029;-60
2023/11/04 10:02:46;;;;;;;0.47;0.30;;;20.60;44.90;;;;;;5074408;28;20033;-61
2023/11/04 10:05:12;;;;;;;0.47;0.20;;;20.60;44.90;;;;;;5073141;28;20025;-58
2023/11/04 10:07:38;;;;;;;0.77;0.20;;;20.60;44.80;;;;;;5081980;28;20112;-57
2023/11/04 10:10:05;;;;;;;0.63;0.20;;;20.70;44.90;;;;;;5084571;28;20028;-59
2023/11/04 10:12:31;;;;;;;0.30;0.25;;;20.70;44.80;;;;;;5074960;28;20032;-56
2023/11/04 10:14:57;;;;;;;0.98;0.30;;;20.70;44.80;;;;;;5073387;28;20035;-57
2023/11/04 10:17:22;;;;;;;0.63;0.32;;;20.70;44.70;;;;;;5078587;28;20036;-60
2023/11/04 10:19:48;;;;;;;0.93;0.20;;;20.80;44.70;;;;;;5090646;28;20090;-59
2023/11/04 10:22:14;;;;;;;0.45;0.20;;;20.90;44.70;;;;;;5094470;28;20024;-60
2023/11/04 10:24:40;;;;;;;2.30;0.20;;;20.90;44.70;;;;;;5089286;28;20435;-57
2023/11/04 10:27:06;;;;;;;0.77;0.25;;;20.90;44.60;;;;;;5074458;28;20086;-60
2023/11/04 10:29:33;;;;;;;0.88;0.20;;;20.90;44.60;;;;;;5074370;28;20036;-60
2023/11/04 10:32:03;;;;;;;0.38;0.13;;;20.90;44.60;;;;;;5068804;28;20048;-60
2023/11/04 10:34:34;;;;;;;2.08;0.30;;;21.00;44.60;;;;;;5074073;28;20531;-58
2023/11/04 10:37:02;;;;;;;0.40;0.25;;;21.00;44.60;;;;;;5074521;28;20028;-56
2023/11/04 10:39:31;;;;;;;0.77;0.20;;;21.00;44.50;;;;;;5074185;28;20029;-61
2023/11/04 10:42:11;;;;;;;1.48;0.40;;;21.00;44.50;;;;;;5074699;28;20036;-55
2023/11/04 10:44:40;;;;;;;0.57;0.40;;;21.00;44.40;;;;;;5073833;28;20036;-59
2023/11/04 10:47:35;;;;;;;3.50;0.40;;;21.10;44.50;;;;;;5070432;28;20045;-59
2023/11/04 10:50:18;;;;;;;0.70;0.30;;;21.00;44.30;;;;;;5073824;28;20120;-57
2023/11/04 10:52:55;;;;;;;0.20;0.20;;;21.10;44.30;;;;;;5073223;28;20033;-59
2023/11/04 10:55:27;;;;;;;1.08;0.40;;;21.10;44.20;;;;;;5070293;28;20063;-59
2023/11/04 10:58:05;;;;;;;0.50;0.22;;;21.10;44.10;;;;;;5076350;28;20024;-59
2023/11/04 11:00:34;;;;;;;0.20;0.20;;;21.10;44.00;;;;;;5072751;28;20044;-59
2023/11/04 11:03:01;;;;;;;0.75;0.20;;;21.00;43.90;;;;;;5059077;28;20329;-59
2023/11/04 11:05:28;;;;;;;0.17;0.10;;;21.10;43.90;;;;;;5076765;28;20032;-58
2023/11/04 11:07:54;;;;;;;0.20;0.20;;;21.00;43.80;;;;;;5073355;28;20021;-56
2023/11/04 11:10:28;;;;;;;0.20;0.20;;;21.00;43.80;;;;;;5074467;28;20058;-59
2023/11/04 11:13:09;;;;;;;0.25;0.20;;;21.00;43.70;;;;;;5077626;28;20016;-59
2023/11/04 11:15:35;;;;;;;0.50;0.28;;;21.00;43.60;;;;;;5080493;28;20056;-58
2023/11/04 11:18:01;;;;;;;0.32;0.15;;;21.00;43.70;;;;;;5075054;28;20042;-58
2023/11/04 11:20:33;;;;;;;1.00;0.30;;;21.00;43.90;;;;;;5077403;28;20024;-59
2023/11/04 11:23:03;;;;;;;0.50;0.30;;;21.10;44.20;;;;;;5072022;28;20029;-57
2023/11/04 11:25:30;;;;;;;2.50;0.30;;;21.10;44.20;;;;;;5076509;28;20064;-59
2023/11/04 11:27:56;;;;;;;0.70;0.20;;;21.10;44.10;;;;;;5073776;28;20021;-60
2023/11/04 11:30:32;;;;;;;0.75;0.30;;;21.10;44.10;;;;;;5075582;28;20488;-60
2023/11/04 11:33:08;;;;;;;0.50;0.30;;;21.10;44.00;;;;;;5074536;28;20371;-59
2023/11/04 11:35:56;;;;;;;0.60;0.30;;;21.10;43.90;;;;;;5073716;28;20464;-60
2023/11/04 11:38:22;;;;;;;0.40;0.20;;;21.20;43.90;;;;;;5074836;28;20032;-55
2023/11/04 11:40:47;;;;;;;0.63;0.35;;;21.10;43.80;;;;;;5080671;28;20339;-59
2023/11/04 11:43:18;;;;;;;0.20;0.10;;;21.10;43.90;;;;;;5087526;28;20382;-58
2023/11/04 11:45:58;;;;;;;1.25;0.22;;;21.10;44.00;;;;;;5096796;28;20040;-61
2023/11/04 11:48:28;;;;;;;1.00;0.30;;;21.10;44.00;;;;;;5056522;28;20116;-60
2023/11/04 11:50:54;;;;;;;2.00;0.85;;;21.10;44.10;;;;;;5065677;28;20459;-60
2023/11/04 11:53:21;;;;;;;0.20;0.10;;;21.10;44.10;;;;;;5076590;28;20082;-58
2023/11/04 11:55:57;;;;;;;0.55;0.30;;;21.10;44.20;;;;;;5076849;28;20320;-59
2023/11/04 11:58:27;;;;;;;0.40;0.30;;;21.10;44.20;;;;;;5067924;28;20126;-58
2023/11/04 12:00:55;;;;;;;0.52;0.22;;;21.20;44.30;;;;;;5072955;28;20154;-59
2023/11/04 12:03:22;;;;;;;1.30;0.40;;;21.10;44.20;;;;;;5071118;28;20028;-58
2023/11/04 12:05:49;;;;;;;0.40;0.20;;;21.20;44.30;;;;;;5074721;28;20079;-59
2023/11/04 12:08:15;;;;;;;0.77;0.30;;;21.20;44.30;;;;;;5060253;28;20156;-60
2023/11/04 12:10:43;;;;;;;0.75;0.35;;;21.20;44.20;;;;;;5054913;28;20414;-58
2023/11/04 12:13:10;;;;;;;0.20;0.20;;;21.30;44.30;;;;;;5075341;28;20032;-61
2023/11/04 12:15:36;;;;;;;0.40;0.20;;;21.30;44.30;;;;;;5079159;28;20081;-61
2023/11/04 12:18:06;;;;;;;0.52;0.30;;;21.30;44.30;;;;;;5083444;28;20401;-63
2023/11/04 12:20:32;;;;;;;1.20;0.47;;;21.40;44.30;;;;;;5092577;28;20032;-61
2023/11/04 12:22:59;;;;;;;0.55;0.30;;;21.50;44.30;;;;;;5057605;28;20113;-60
2023/11/04 12:25:26;;;;;;;0.40;0.25;;;21.50;44.30;;;;;;5057477;28;20036;-60
2023/11/04 12:27:53;;;;;;;0.30;0.20;;;21.60;44.30;;;;;;5076450;28;20028;-61
2023/11/04 12:30:20;;;;;;;0.32;0.20;;;21.60;44.20;;;;;;5078593;28;20084;-60
2023/11/04 12:32:48;;;;;;;0.40;0.22;;;21.70;44.20;;;;;;5082809;28;20111;-59
2023/11/04 12:35:15;;;;;;;0.10;0.10;;;21.70;44.20;;;;;;5072968;28;20036;-61
2023/11/04 12:37:40;;;;;;;0.88;0.20;;;21.70;44.20;;;;;;5075957;28;20024;-60
2023/11/04 12:40:09;;;;;;;1.20;0.30;;;21.80;44.20;;;;;;5073223;28;20032;-61
2023/11/04 12:42:40;;;;;;;0.75;0.30;;;21.80;44.20;;;;;;5075330;28;20332;-60
2023/11/04 12:45:08;;;;;;;0.50;0.30;;;21.80;44.10;;;;;;5073845;28;20189;-59
2023/11/04 12:47:35;;;;;;;1.20;0.35;;;21.90;44.20;;;;;;5072480;28;21707;-56